Time,TemperatureF,DewpointF,PressureIn,WindDirection,WindDirectionDegrees,WindSpeedMPH,WindSpeedGustMPH,Humidity,HourlyPrecipIn,Conditions,Clouds,dailyrainin,SoftwareType,DateUTC
2013-02-05 00:04:00,37.3,26.0,30.21,SSE,165,2.0,4.0,64,0.00,,,0.00,weatherlink.com 1.10,2013-02-05 05:04:00,
2013-02-05 00:19:00,37.4,25.0,30.20,South,183,1.0,3.0,62,0.00,,,0.00,weatherlink.com 1.10,2013-02-05 05:19:00,
2013-02-05 00:34:00,37.1,24.0,30.20,South,170,1.0,3.0,60,0.00,,,0.00,weatherlink.com 1.10,2013-02-05 05:34:00,
2013-02-05 00:49:00,36.7,23.0,30.19,SSE,165,2.0,2.0,59,0.00,,,0.00,weatherlink.com 1.10,2013-02-05 05:49:00,
2013-02-05 01:04:00,36.5,24.0,30.19,SSE,165,0.0,2.0,60,0.00,,,0.00,weatherlink.com 1.10,2013-02-05 06:04:00,
2013-02-05 01:19:00,36.0,25.0,30.19,SSE,165,2.0,3.0,64,0.00,,,0.00,weatherlink.com 1.10,2013-02-05 06:19:00,
2013-02-05 01:34:00,35.9,25.0,30.19,South,169,2.0,3.0,64,0.00,,,0.00,weatherlink.com 1.10,2013-02-05 06:34:00,
2013-02-05 01:49:00,36.0,24.0,30.19,SSE,167,2.0,3.0,62,0.00,,,0.00,weatherlink.com 1.10,2013-02-05 06:49:00,
2013-02-05 02:04:00,35.5,24.0,30.18,SSE,165,0.0,4.0,63,0.00,,,0.00,weatherlink.com 1.10,2013-02-05 07:04:00,
2013-02-05 02:19:00,35.1,24.0,30.18,SSE,165,1.0,3.0,63,0.00,,,0.00,weatherlink.com 1.10,2013-02-05 07:19:00,
2013-02-05 02:34:00,34.5,24.0,30.18,South,172,1.0,2.0,66,0.00,,,0.00,weatherlink.com 1.10,2013-02-05 07:34:00,
2013-02-05 02:49:00,34.9,24.0,30.18,South,188,0.0,2.0,64,0.00,,,0.00,weatherlink.com 1.10,2013-02-05 07:49:00,
2013-02-05 03:04:00,35.2,24.0,30.18,SSW,197,0.0,0.0,64,0.00,,,0.00,weatherlink.com 1.10,2013-02-05 08:04:00,
2013-02-05 03:19:00,35.9,25.0,30.17,SSE,156,2.0,2.0,65,0.00,,,0.00,weatherlink.com 1.10,2013-02-05 08:19:00,
2013-02-05 03:34:00,35.9,24.0,30.17,SSE,162,0.0,2.0,63,0.00,,,0.00,weatherlink.com 1.10,2013-02-05 08:34:00,
2013-02-05 03:49:00,35.8,25.0,30.16,SSW,203,0.0,2.0,64,0.00,,,0.00,weatherlink.com 1.10,2013-02-05 08:49:00,
2013-02-05 04:04:00,35.4,25.0,30.16,SE,139,3.0,4.0,65,0.00,,,0.00,weatherlink.com 1.10,2013-02-05 09:04:00,
2013-02-05 04:19:00,35.3,25.0,30.16,SSW,207,1.0,3.0,67,0.00,,,0.00,weatherlink.com 1.10,2013-02-05 09:19:00,
2013-02-05 04:34:00,35.4,25.0,30.16,SSE,159,1.0,4.0,65,0.00,,,0.00,weatherlink.com 1.10,2013-02-05 09:34:00,
2013-02-05 04:49:00,35.3,25.0,30.17,SSE,158,0.0,3.0,67,0.00,,,0.00,weatherlink.com 1.10,2013-02-05 09:49:00,
2013-02-05 05:04:00,35.9,24.0,30.17,SW,220,1.0,3.0,63,0.00,,,0.00,weatherlink.com 1.10,2013-02-05 10:04:00,
2013-02-05 05:19:00,35.9,27.0,30.17,SSE,161,0.0,4.0,69,0.00,,,0.00,weatherlink.com 1.10,2013-02-05 10:19:00,
2013-02-05 05:34:00,37.0,25.0,30.16,SE,128,2.0,5.0,62,0.00,,,0.00,weatherlink.com 1.10,2013-02-05 10:34:00,
2013-02-05 05:49:00,37.0,26.0,30.16,SSW,198,2.0,4.0,65,0.00,,,0.00,weatherlink.com 1.10,2013-02-05 10:49:00,
2013-02-05 06:04:00,37.3,26.0,30.16,SSE,163,1.0,4.0,65,0.00,,,0.00,weatherlink.com 1.10,2013-02-05 11:04:00,
2013-02-05 06:19:00,36.4,26.0,30.16,WSW,245,0.0,4.0,67,0.00,,,0.00,weatherlink.com 1.10,2013-02-05 11:19:00,
2013-02-05 06:34:00,36.8,28.0,30.17,SW,219,2.0,3.0,70,0.00,,,0.00,weatherlink.com 1.10,2013-02-05 11:34:00,
2013-02-05 06:49:00,37.3,29.0,30.18,SSW,204,1.0,3.0,72,0.00,,,0.00,weatherlink.com 1.10,2013-02-05 11:49:00,
2013-02-05 07:04:00,37.3,29.0,30.18,South,191,0.0,2.0,73,0.00,,,0.00,weatherlink.com 1.10,2013-02-05 12:04:00,
2013-02-05 07:19:00,37.2,30.0,30.18,SW,219,5.0,6.0,74,0.00,,,0.00,weatherlink.com 1.10,2013-02-05 12:19:00,
2013-02-05 07:34:00,37.5,30.0,30.18,NE,55,1.0,2.0,75,0.00,,,0.00,weatherlink.com 1.10,2013-02-05 12:34:00,
2013-02-05 07:49:00,36.8,30.0,30.18,SW,226,2.0,3.0,77,0.00,,,0.00,weatherlink.com 1.10,2013-02-05 12:49:00,
2013-02-05 08:04:00,35.9,29.0,30.19,SSE,162,2.0,4.0,76,0.00,,,0.00,weatherlink.com 1.10,2013-02-05 13:04:00,
2013-02-05 08:19:00,35.7,30.0,30.19,SSW,205,2.0,3.0,81,0.00,,,0.00,weatherlink.com 1.10,2013-02-05 13:19:00,
2013-02-05 08:35:00,36.5,31.0,30.19,WNW,300,0.0,4.0,79,0.00,,,0.00,weatherlink.com 1.10,2013-02-05 13:35:00,
2013-02-05 08:50:00,36.4,32.0,30.19,SSE,157,1.0,2.0,83,0.00,,,0.00,weatherlink.com 1.10,2013-02-05 13:50:00,
2013-02-05 09:05:00,36.3,32.0,30.19,South,186,0.0,3.0,83,0.00,,,0.00,weatherlink.com 1.10,2013-02-05 14:05:00,
2013-02-05 09:20:00,36.1,31.0,30.19,West,276,1.0,1.0,83,0.00,,,0.00,weatherlink.com 1.10,2013-02-05 14:20:00,
2013-02-05 09:35:00,36.0,32.0,30.19,SE,136,0.0,1.0,86,0.00,,,0.00,weatherlink.com 1.10,2013-02-05 14:35:00,
2013-02-05 09:50:00,36.5,33.0,30.19,ENE,75,0.0,3.0,86,0.00,,,0.00,weatherlink.com 1.10,2013-02-05 14:50:00,
2013-02-05 10:05:00,36.9,33.0,30.19,SSE,155,0.0,0.0,85,0.00,,,0.00,weatherlink.com 1.10,2013-02-05 15:05:00,
2013-02-05 10:20:00,36.4,33.0,30.20,SSE,159,0.0,2.0,86,0.00,,,0.00,weatherlink.com 1.10,2013-02-05 15:20:00,
2013-02-05 10:35:00,36.5,32.0,30.20,SW,236,0.0,2.0,84,0.00,,,0.00,weatherlink.com 1.10,2013-02-05 15:35:00,
2013-02-05 10:50:00,36.7,33.0,30.21,South,186,0.0,2.0,87,0.00,,,0.00,weatherlink.com 1.10,2013-02-05 15:50:00,
2013-02-05 11:05:00,37.2,34.0,30.21,ESE,103,0.0,0.0,88,0.00,,,0.00,weatherlink.com 1.10,2013-02-05 16:05:00,
2013-02-05 11:20:00,37.0,34.0,30.21,ESE,103,0.0,0.0,87,0.00,,,0.00,weatherlink.com 1.10,2013-02-05 16:20:00,
2013-02-05 11:35:00,36.9,34.0,30.21,ESE,103,0.0,0.0,89,0.00,,,0.00,weatherlink.com 1.10,2013-02-05 16:35:00,
2013-02-05 11:50:00,37.3,34.0,30.21,ENE,65,0.0,0.0,89,0.00,,,0.00,weatherlink.com 1.10,2013-02-05 16:50:00,
2013-02-05 12:05:00,37.6,35.0,30.21,WNW,297,0.0,0.0,89,0.00,,,0.00,weatherlink.com 1.10,2013-02-05 17:05:00,
2013-02-05 12:20:00,38.5,35.0,30.20,WNW,292,1.0,3.0,86,0.00,,,0.00,weatherlink.com 1.10,2013-02-05 17:20:00,
2013-02-05 12:35:00,38.8,35.0,30.19,SE,134,0.0,3.0,86,0.00,,,0.00,weatherlink.com 1.10,2013-02-05 17:35:00,
2013-02-05 12:50:00,40.3,36.0,30.19,WNW,295,0.0,2.0,84,0.00,,,0.00,weatherlink.com 1.10,2013-02-05 17:50:00,
2013-02-05 13:05:00,42.4,37.0,30.18,NE,44,2.0,2.0,82,0.00,,,0.00,weatherlink.com 1.10,2013-02-05 18:05:00,
2013-02-05 13:20:00,44.0,38.0,30.17,WNW,285,3.0,3.0,79,0.00,,,0.00,weatherlink.com 1.10,2013-02-05 18:20:00,
2013-02-05 13:50:00,46.3,37.0,30.15,SW,215,3.0,5.0,69,0.00,,,0.00,weatherlink.com 1.10,2013-02-05 18:50:00,
2013-02-05 14:05:00,46.7,37.0,30.15,SW,218,0.0,2.0,68,0.00,,,0.00,weatherlink.com 1.10,2013-02-05 19:05:00,
2013-02-05 14:20:00,46.2,35.0,30.15,SSW,207,1.0,5.0,66,0.00,,,0.00,weatherlink.com 1.10,2013-02-05 19:20:00,
2013-02-05 14:35:00,46.2,36.0,30.14,SW,228,2.0,6.0,67,0.00,,,0.00,weatherlink.com 1.10,2013-02-05 19:35:00,
2013-02-05 14:50:00,45.8,35.0,30.14,West,270,2.0,3.0,67,0.00,,,0.00,weatherlink.com 1.10,2013-02-05 19:50:00,
2013-02-05 15:05:00,46.0,35.0,30.14,SSE,164,3.0,6.0,65,0.00,,,0.00,weatherlink.com 1.10,2013-02-05 20:05:00,
2013-02-05 15:20:00,46.3,35.0,30.14,NW,315,2.0,5.0,64,0.00,,,0.00,weatherlink.com 1.10,2013-02-05 20:20:00,
2013-02-05 15:35:00,46.5,34.0,30.14,SSW,210,1.0,4.0,62,0.00,,,0.00,weatherlink.com 1.10,2013-02-05 20:35:00,
2013-02-05 15:50:00,46.7,34.0,30.14,SSW,210,0.0,8.0,62,0.00,,,0.00,weatherlink.com 1.10,2013-02-05 20:50:00,
2013-02-05 16:05:00,46.4,33.0,30.14,SW,222,1.0,5.0,61,0.00,,,0.00,weatherlink.com 1.10,2013-02-05 21:05:00,
2013-02-05 16:20:00,46.8,34.0,30.14,SE,142,1.0,3.0,61,0.00,,,0.00,weatherlink.com 1.10,2013-02-05 21:20:00,
2013-02-05 16:35:00,47.0,34.0,30.14,South,172,1.0,5.0,60,0.00,,,0.00,weatherlink.com 1.10,2013-02-05 21:35:00,
2013-02-05 16:50:00,46.5,34.0,30.14,SSE,162,0.0,3.0,63,0.00,,,0.00,weatherlink.com 1.10,2013-02-05 21:50:00,
2013-02-05 17:05:00,46.4,34.0,30.14,South,174,2.0,3.0,62,0.00,,,0.00,weatherlink.com 1.10,2013-02-05 22:05:00,
2013-02-05 17:20:00,45.3,34.0,30.15,SSE,167,1.0,3.0,66,0.00,,,0.00,weatherlink.com 1.10,2013-02-05 22:20:00,
2013-02-05 17:35:00,44.9,34.0,30.15,SSE,165,3.0,4.0,66,0.00,,,0.00,weatherlink.com 1.10,2013-02-05 22:35:00,
2013-02-05 17:50:00,44.1,34.0,30.15,South,174,3.0,4.0,69,0.00,,,0.00,weatherlink.com 1.10,2013-02-05 22:50:00,
2013-02-05 18:05:00,43.4,34.0,30.15,South,169,3.0,5.0,70,0.00,,,0.00,weatherlink.com 1.10,2013-02-05 23:05:00,
2013-02-05 18:20:00,42.6,34.0,30.15,SSE,165,3.0,4.0,72,0.00,,,0.00,weatherlink.com 1.10,2013-02-05 23:20:00,
2013-02-05 18:35:00,42.2,34.0,30.16,SSE,160,3.0,4.0,74,0.00,,,0.00,weatherlink.com 1.10,2013-02-05 23:35:00,
2013-02-05 18:50:00,42.2,34.0,30.16,SSE,162,4.0,4.0,73,0.00,,,0.00,weatherlink.com 1.10,2013-02-05 23:50:00,
2013-02-05 19:05:00,42.1,34.0,30.17,SSE,167,3.0,3.0,73,0.00,,,0.00,weatherlink.com 1.10,2013-02-06 00:05:00,
2013-02-05 19:20:00,41.9,34.0,30.17,South,169,2.0,4.0,73,0.00,,,0.00,weatherlink.com 1.10,2013-02-06 00:20:00,
2013-02-05 19:50:00,41.8,34.0,30.18,SSE,156,3.0,5.0,74,0.00,,,0.00,weatherlink.com 1.10,2013-02-06 00:50:00,
2013-02-05 20:05:00,42.0,34.0,30.18,SSE,165,2.0,4.0,73,0.00,,,0.00,weatherlink.com 1.10,2013-02-06 01:05:00,
2013-02-05 20:20:00,42.1,34.0,30.18,SSE,167,2.0,4.0,73,0.00,,,0.00,weatherlink.com 1.10,2013-02-06 01:20:00,
2013-02-05 20:35:00,42.0,34.0,30.19,SSW,195,2.0,4.0,73,0.00,,,0.00,weatherlink.com 1.10,2013-02-06 01:35:00,
2013-02-05 20:50:00,41.8,34.0,30.19,South,172,3.0,4.0,74,0.00,,,0.00,weatherlink.com 1.10,2013-02-06 01:50:00,
2013-02-05 21:06:00,41.6,34.0,30.20,SSE,165,4.0,4.0,74,0.00,,,0.00,weatherlink.com 1.10,2013-02-06 02:06:00,
2013-02-05 21:21:00,41.4,34.0,30.20,South,171,3.0,4.0,75,0.00,,,0.00,weatherlink.com 1.10,2013-02-06 02:21:00,
2013-02-05 21:36:00,41.0,34.0,30.21,SSW,199,3.0,4.0,76,0.00,,,0.00,weatherlink.com 1.10,2013-02-06 02:36:00,
2013-02-05 21:51:00,40.9,34.0,30.21,SSE,167,3.0,4.0,77,0.00,,,0.00,weatherlink.com 1.10,2013-02-06 02:51:00,
2013-02-05 22:06:00,40.8,34.0,30.21,South,187,2.0,4.0,78,0.00,,,0.00,weatherlink.com 1.10,2013-02-06 03:06:00,
2013-02-05 22:21:00,40.9,35.0,30.22,SE,133,1.0,5.0,78,0.00,,,0.00,weatherlink.com 1.10,2013-02-06 03:21:00,
2013-02-05 22:36:00,40.7,34.0,30.21,South,177,3.0,4.0,78,0.00,,,0.00,weatherlink.com 1.10,2013-02-06 03:36:00,
2013-02-05 22:51:00,40.6,35.0,30.22,SSE,165,1.0,3.0,79,0.00,,,0.00,weatherlink.com 1.10,2013-02-06 03:51:00,
2013-02-05 23:06:00,40.6,35.0,30.22,SSE,162,2.0,4.0,79,0.00,,,0.00,weatherlink.com 1.10,2013-02-06 04:06:00,
2013-02-05 23:21:00,40.6,35.0,30.22,South,169,2.0,4.0,80,0.00,,,0.00,weatherlink.com 1.10,2013-02-06 04:21:00,
2013-02-05 23:36:00,40.8,35.0,30.22,South,184,3.0,4.0,80,0.00,,,0.00,weatherlink.com 1.10,2013-02-06 04:36:00,
2013-02-05 23:51:00,41.0,35.0,30.22,SW,225,1.0,5.0,80,0.00,,,0.00,weatherlink.com 1.10,2013-02-06 04:51:00,